sensor_id;sensor_type;location;lat;lon;timestamp;P1;durP1;ratioP1;P2;durP2;ratioP2
18473;SDS011;30265;52.408;13.500;2023-10-13T00:01:33;0.60;;;0.60;;
18473;SDS011;30265;52.408;13.500;2023-10-13T00:11:56;0.70;;;0.70;;
18473;SDS011;30265;52.408;13.500;2023-10-13T00:22:18;0.60;;;0.60;;
18473;SDS011;30265;52.408;13.500;2023-10-13T00:32:42;0.60;;;0.60;;
18473;SDS011;30265;52.408;13.500;2023-10-13T00:43:08;0.65;;;0.65;;
18473;SDS011;30265;52.408;13.500;2023-10-13T00:53:48;0.70;;;0.70;;
18473;SDS011;30265;52.408;13.500;2023-10-13T01:04:11;0.60;;;0.60;;
18473;SDS011;30265;52.408;13.500;2023-10-13T01:14:36;0.63;;;0.63;;
18473;SDS011;30265;52.408;13.500;2023-10-13T01:24:59;0.65;;;0.65;;
18473;SDS011;30265;52.408;13.500;2023-10-13T01:35:33;0.70;;;0.70;;
18473;SDS011;30265;52.408;13.500;2023-10-13T01:46:03;0.70;;;0.70;;
18473;SDS011;30265;52.408;13.500;2023-10-13T01:56:25;0.60;;;0.60;;
18473;SDS011;30265;52.408;13.500;2023-10-13T02:06:52;0.70;;;0.70;;
18473;SDS011;30265;52.408;13.500;2023-10-13T02:17:13;0.60;;;0.60;;
18473;SDS011;30265;52.408;13.500;2023-10-13T02:27:38;0.60;;;0.60;;
18473;SDS011;30265;52.408;13.500;2023-10-13T02:38:01;0.60;;;0.60;;
18473;SDS011;30265;52.408;13.500;2023-10-13T02:48:31;0.63;;;0.63;;
18473;SDS011;30265;52.408;13.500;2023-10-13T02:59:00;0.70;;;0.70;;
18473;SDS011;30265;52.408;13.500;2023-10-13T03:09:26;0.70;;;0.70;;
18473;SDS011;30265;52.408;13.500;2023-10-13T03:19:48;0.60;;;0.60;;
18473;SDS011;30265;52.408;13.500;2023-10-13T03:30:13;0.60;;;0.60;;
18473;SDS011;30265;52.408;13.500;2023-10-13T03:40:35;0.70;;;0.70;;
18473;SDS011;30265;52.408;13.500;2023-10-13T03:51:02;0.60;;;0.60;;
18473;SDS011;30265;52.408;13.500;2023-10-13T04:01:27;0.60;;;0.60;;
18473;SDS011;30265;52.408;13.500;2023-10-13T04:11:53;0.70;;;0.70;;
18473;SDS011;30265;52.408;13.500;2023-10-13T04:22:28;0.60;;;0.60;;
18473;SDS011;30265;52.408;13.500;2023-10-13T04:33:12;0.60;;;0.60;;
18473;SDS011;30265;52.408;13.500;2023-10-13T04:43:56;0.65;;;0.65;;
18473;SDS011;30265;52.408;13.500;2023-10-13T04:54:26;0.60;;;0.60;;
18473;SDS011;30265;52.408;13.500;2023-10-13T05:04:53;0.60;;;0.60;;
18473;SDS011;30265;52.408;13.500;2023-10-13T05:15:46;0.50;;;0.50;;
18473;SDS011;30265;52.408;13.500;2023-10-13T05:26:26;0.70;;;0.70;;
18473;SDS011;30265;52.408;13.500;2023-10-13T05:37:06;0.60;;;0.60;;
18473;SDS011;30265;52.408;13.500;2023-10-13T05:47:44;0.60;;;0.60;;
18473;SDS011;30265;52.408;13.500;2023-10-13T05:58:22;0.68;;;0.68;;
18473;SDS011;30265;52.408;13.500;2023-10-13T06:09:01;0.50;;;0.50;;
18473;SDS011;30265;52.408;13.500;2023-10-13T06:19:42;0.60;;;0.60;;
18473;SDS011;30265;52.408;13.500;2023-10-13T06:30:21;0.60;;;0.60;;
18473;SDS011;30265;52.408;13.500;2023-10-13T06:40:46;0.45;;;0.45;;
18473;SDS011;30265;52.408;13.500;2023-10-13T06:51:08;0.60;;;0.60;;
18473;SDS011;30265;52.408;13.500;2023-10-13T07:01:39;0.50;;;0.50;;
18473;SDS011;30265;52.408;13.500;2023-10-13T07:12:02;0.50;;;0.50;;
18473;SDS011;30265;52.408;13.500;2023-10-13T07:22:28;0.43;;;0.43;;
18473;SDS011;30265;52.408;13.500;2023-10-13T07:32:51;0.40;;;0.40;;
18473;SDS011;30265;52.408;13.500;2023-10-13T07:43:15;0.47;;;0.47;;
18473;SDS011;30265;52.408;13.500;2023-10-13T07:53:41;0.40;;;0.40;;
18473;SDS011;30265;52.408;13.500;2023-10-13T08:04:36;0.43;;;0.43;;
18473;SDS011;30265;52.408;13.500;2023-10-13T08:14:57;0.40;;;0.40;;
18473;SDS011;30265;52.408;13.500;2023-10-13T08:25:34;0.50;;;0.50;;
18473;SDS011;30265;52.408;13.500;2023-10-13T08:36:27;0.40;;;0.40;;
18473;SDS011;30265;52.408;13.500;2023-10-13T08:46:51;0.47;;;0.47;;
18473;SDS011;30265;52.408;13.500;2023-10-13T08:57:24;0.40;;;0.40;;
18473;SDS011;30265;52.408;13.500;2023-10-13T09:07:55;0.40;;;0.40;;
18473;SDS011;30265;52.408;13.500;2023-10-13T09:18:28;0.30;;;0.30;;
18473;SDS011;30265;52.408;13.500;2023-10-13T09:29:17;0.40;;;0.40;;
18473;SDS011;30265;52.408;13.500;2023-10-13T09:39:39;0.40;;;0.40;;
18473;SDS011;30265;52.408;13.500;2023-10-13T09:50:10;0.47;;;0.47;;
18473;SDS011;30265;52.408;13.500;2023-10-13T10:00:45;0.30;;;0.30;;
18473;SDS011;30265;52.408;13.500;2023-10-13T10:11:26;0.47;;;0.47;;
18473;SDS011;30265;52.408;13.500;2023-10-13T10:22:00;0.30;;;0.30;;
18473;SDS011;30265;52.408;13.500;2023-10-13T10:32:33;0.40;;;0.40;;
18473;SDS011;30265;52.408;13.500;2023-10-13T10:42:55;0.40;;;0.40;;
18473;SDS011;30265;52.408;13.500;2023-10-13T10:53:29;0.30;;;0.30;;
18473;SDS011;30265;52.408;13.500;2023-10-13T11:03:54;0.40;;;0.40;;
18473;SDS011;30265;52.408;13.500;2023-10-13T11:14:23;0.33;;;0.33;;
18473;SDS011;30265;52.408;13.500;2023-10-13T11:24:45;0.38;;;0.38;;
18473;SDS011;30265;52.408;13.500;2023-10-13T11:35:09;0.40;;;0.40;;
18473;SDS011;30265;52.408;13.500;2023-10-13T11:45:47;0.43;;;0.43;;
18473;SDS011;30265;52.408;13.500;2023-10-13T11:56:18;0.47;;;0.47;;
18473;SDS011;30265;52.408;13.500;2023-10-13T12:06:41;0.50;;;0.50;;
18473;SDS011;30265;52.408;13.500;2023-10-13T12:17:25;0.38;;;0.38;;
18473;SDS011;30265;52.408;13.500;2023-10-13T12:27:52;0.30;;;0.30;;
18473;SDS011;30265;52.408;13.500;2023-10-13T12:38:18;0.30;;;0.30;;
18473;SDS011;30265;52.408;13.500;2023-10-13T12:48:57;0.28;;;0.28;;
18473;SDS011;30265;52.408;13.500;2023-10-13T12:59:37;0.30;;;0.30;;
18473;SDS011;30265;52.408;13.500;2023-10-13T13:09:59;0.20;;;0.20;;
18473;SDS011;30265;52.408;13.500;2023-10-13T13:20:22;0.20;;;0.20;;
18473;SDS011;30265;52.408;13.500;2023-10-13T13:30:48;0.20;;;0.20;;
18473;SDS011;30265;52.408;13.500;2023-10-13T13:41:13;0.20;;;0.20;;
18473;SDS011;30265;52.408;13.500;2023-10-13T13:51:36;0.30;;;0.30;;
18473;SDS011;30265;52.408;13.500;2023-10-13T14:01:59;0.25;;;0.25;;
18473;SDS011;30265;52.408;13.500;2023-10-13T14:12:26;0.20;;;0.20;;
18473;SDS011;30265;52.408;13.500;2023-10-13T14:23:03;0.10;;;0.10;;
18473;SDS011;30265;52.408;13.500;2023-10-13T14:33:27;0.20;;;0.20;;
18473;SDS011;30265;52.408;13.500;2023-10-13T14:43:52;0.20;;;0.20;;
18473;SDS011;30265;52.408;13.500;2023-10-13T14:54:17;0.10;;;0.10;;
18473;SDS011;30265;52.408;13.500;2023-10-13T15:04:47;0.25;;;0.25;;
18473;SDS011;30265;52.408;13.500;2023-10-13T15:15:10;0.30;;;0.30;;
18473;SDS011;30265;52.408;13.500;2023-10-13T15:25:37;0.30;;;0.30;;
18473;SDS011;30265;52.408;13.500;2023-10-13T15:36:09;0.30;;;0.30;;
18473;SDS011;30265;52.408;13.500;2023-10-13T15:46:37;0.20;;;0.20;;
18473;SDS011;30265;52.408;13.500;2023-10-13T15:57:01;0.30;;;0.30;;
18473;SDS011;30265;52.408;13.500;2023-10-13T16:07:27;0.20;;;0.20;;
18473;SDS011;30265;52.408;13.500;2023-10-13T16:17:49;0.30;;;0.30;;
18473;SDS011;30265;52.408;13.500;2023-10-13T16:38:36;0.35;;;0.35;;
18473;SDS011;30265;52.408;13.500;2023-10-13T16:48:58;0.40;;;0.40;;
18473;SDS011;30265;52.408;13.500;2023-10-13T16:59:21;0.40;;;0.40;;
18473;SDS011;30265;52.408;13.500;2023-10-13T17:09:47;0.38;;;0.38;;
18473;SDS011;30265;52.408;13.500;2023-10-13T17:20:10;0.30;;;0.30;;
18473;SDS011;30265;52.408;13.500;2023-10-13T17:30:31;0.40;;;0.40;;
18473;SDS011;30265;52.408;13.500;2023-10-13T17:40:57;0.30;;;0.30;;
18473;SDS011;30265;52.408;13.500;2023-10-13T17:51:20;0.30;;;0.30;;
18473;SDS011;30265;52.408;13.500;2023-10-13T18:01:45;0.40;;;0.40;;
18473;SDS011;30265;52.408;13.500;2023-10-13T18:12:10;0.30;;;0.30;;
18473;SDS011;30265;52.408;13.500;2023-10-13T18:22:33;0.47;;;0.47;;
18473;SDS011;30265;52.408;13.500;2023-10-13T18:32:55;0.22;;;0.22;;
18473;SDS011;30265;52.408;13.500;2023-10-13T18:43:18;0.30;;;0.30;;
18473;SDS011;30265;52.408;13.500;2023-10-13T18:53:40;0.30;;;0.30;;
18473;SDS011;30265;52.408;13.500;2023-10-13T19:04:03;0.30;;;0.30;;
18473;SDS011;30265;52.408;13.500;2023-10-13T19:14:25;0.30;;;0.30;;
18473;SDS011;30265;52.408;13.500;2023-10-13T19:24:47;0.30;;;0.30;;
18473;SDS011;30265;52.408;13.500;2023-10-13T19:35:09;0.30;;;0.30;;
18473;SDS011;30265;52.408;13.500;2023-10-13T19:45:31;0.30;;;0.30;;
18473;SDS011;30265;52.408;13.500;2023-10-13T19:55:53;0.20;;;0.20;;
18473;SDS011;30265;52.408;13.500;2023-10-13T20:06:16;0.30;;;0.30;;
18473;SDS011;30265;52.408;13.500;2023-10-13T20:16:40;0.30;;;0.30;;
18473;SDS011;30265;52.408;13.500;2023-10-13T20:27:08;0.30;;;0.30;;
18473;SDS011;30265;52.408;13.500;2023-10-13T20:37:29;0.30;;;0.30;;
18473;SDS011;30265;52.408;13.500;2023-10-13T20:47:52;0.68;;;0.38;;
18473;SDS011;30265;52.408;13.500;2023-10-13T20:58:14;0.35;;;0.35;;
18473;SDS011;30265;52.408;13.500;2023-10-13T21:08:39;0.40;;;0.40;;
18473;SDS011;30265;52.408;13.500;2023-10-13T21:19:05;0.30;;;0.30;;
18473;SDS011;30265;52.408;13.500;2023-10-13T21:29:28;0.30;;;0.30;;
18473;SDS011;30265;52.408;13.500;2023-10-13T21:39:50;0.35;;;0.35;;
18473;SDS011;30265;52.408;13.500;2023-10-13T21:50:13;0.30;;;0.30;;
18473;SDS011;30265;52.408;13.500;2023-10-13T22:00:37;0.40;;;0.40;;
18473;SDS011;30265;52.408;13.500;2023-10-13T22:11:17;0.30;;;0.30;;
18473;SDS011;30265;52.408;13.500;2023-10-13T22:21:40;0.40;;;0.40;;
18473;SDS011;30265;52.408;13.500;2023-10-13T22:32:03;0.40;;;0.40;;
18473;SDS011;30265;52.408;13.500;2023-10-13T22:42:26;0.20;;;0.20;;
18473;SDS011;30265;52.408;13.500;2023-10-13T22:52:50;0.50;;;0.50;;
18473;SDS011;30265;52.408;13.500;2023-10-13T23:03:12;0.40;;;0.40;;
18473;SDS011;30265;52.408;13.500;2023-10-13T23:13:36;0.40;;;0.40;;
18473;SDS011;30265;52.408;13.500;2023-10-13T23:23:58;0.30;;;0.30;;
18473;SDS011;30265;52.408;13.500;2023-10-13T23:34:21;0.40;;;0.40;;
18473;SDS011;30265;52.408;13.500;2023-10-13T23:44:42;0.35;;;0.35;;
18473;SDS011;30265;52.408;13.500;2023-10-13T23:55:08;0.40;;;0.40;;
